sensor_id;sensor_type;location;lat;lon;timestamp;P1;durP1;ratioP1;P2;durP2;ratioP2
6561;SDS011;3314;50.890;4.722;2022-09-24T00:00:27;16.6;;;6.8;;
6561;SDS011;3314;50.890;4.722;2022-09-24T00:02:26;18.4;;;8.7;;
6561;SDS011;3314;50.890;4.722;2022-09-24T00:04:26;17.5;;;7.7;;
6561;SDS011;3314;50.890;4.722;2022-09-24T00:06:27;19.8;;;8.0;;
6561;SDS011;3314;50.890;4.722;2022-09-24T00:08:27;19.5;;;9.0;;
6561;SDS011;3314;50.890;4.722;2022-09-24T00:10:27;19.5;;;8.4;;
6561;SDS011;3314;50.890;4.722;2022-09-24T00:12:27;17.9;;;8.8;;
6561;SDS011;3314;50.890;4.722;2022-09-24T00:14:27;19.0;;;8.8;;
6561;SDS011;3314;50.890;4.722;2022-09-24T00:16:27;19.3;;;8.9;;
6561;SDS011;3314;50.890;4.722;2022-09-24T00:18:28;23.4;;;8.7;;
6561;SDS011;3314;50.890;4.722;2022-09-24T00:20:28;18.2;;;9.2;;
6561;SDS011;3314;50.890;4.722;2022-09-24T00:22:28;17.9;;;8.4;;
6561;SDS011;3314;50.890;4.722;2022-09-24T00:26:37;18.5;;;7.9;;
6561;SDS011;3314;50.890;4.722;2022-09-24T00:26:52;19.3;;;7.8;;
6561;SDS011;3314;50.890;4.722;2022-09-24T00:28:28;18.7;;;7.8;;
6561;SDS011;3314;50.890;4.722;2022-09-24T00:30:28;19.3;;;8.7;;
6561;SDS011;3314;50.890;4.722;2022-09-24T00:32:32;15.5;;;7.5;;
6561;SDS011;3314;50.890;4.722;2022-09-24T00:34:22;20.3;;;9.4;;
6561;SDS011;3314;50.890;4.722;2022-09-24T00:36:26;23.1;;;9.2;;
6561;SDS011;3314;50.890;4.722;2022-09-24T00:38:29;16.6;;;7.7;;
6561;SDS011;3314;50.890;4.722;2022-09-24T00:40:31;17.2;;;8.4;;
6561;SDS011;3314;50.890;4.722;2022-09-24T00:42:22;19.8;;;9.2;;
6561;SDS011;3314;50.890;4.722;2022-09-24T00:44:56;17.7;;;8.7;;
6561;SDS011;3314;50.890;4.722;2022-09-24T00:46:21;19.5;;;8.2;;
6561;SDS011;3314;50.890;4.722;2022-09-24T00:48:27;21.7;;;9.3;;
6561;SDS011;3314;50.890;4.722;2022-09-24T00:50:28;21.6;;;9.5;;
6561;SDS011;3314;50.890;4.722;2022-09-24T00:52:18;19.4;;;8.1;;
6561;SDS011;3314;50.890;4.722;2022-09-24T00:54:23;17.5;;;7.8;;
6561;SDS011;3314;50.890;4.722;2022-09-24T00:56:24;18.9;;;7.9;;
6561;SDS011;3314;50.890;4.722;2022-09-24T00:58:24;15.7;;;6.7;;
6561;SDS011;3314;50.890;4.722;2022-09-24T01:00:25;21.9;;;8.5;;
6561;SDS011;3314;50.890;4.722;2022-09-24T01:02:25;17.7;;;8.1;;
6561;SDS011;3314;50.890;4.722;2022-09-24T01:04:29;16.6;;;6.9;;
6561;SDS011;3314;50.890;4.722;2022-09-24T01:06:19;17.8;;;7.1;;
6561;SDS011;3314;50.890;4.722;2022-09-24T01:08:19;17.0;;;6.4;;
6561;SDS011;3314;50.890;4.722;2022-09-24T01:10:50;16.0;;;6.9;;
6561;SDS011;3314;50.890;4.722;2022-09-24T01:12:23;17.9;;;6.9;;
6561;SDS011;3314;50.890;4.722;2022-09-24T01:14:19;16.5;;;6.6;;
6561;SDS011;3314;50.890;4.722;2022-09-24T01:16:26;16.7;;;5.9;;
6561;SDS011;3314;50.890;4.722;2022-09-24T01:18:19;17.1;;;6.2;;
6561;SDS011;3314;50.890;4.722;2022-09-24T01:20:27;19.9;;;7.2;;
6561;SDS011;3314;50.890;4.722;2022-09-24T01:22:19;16.9;;;6.6;;
6561;SDS011;3314;50.890;4.722;2022-09-24T01:24:34;14.4;;;5.8;;
6561;SDS011;3314;50.890;4.722;2022-09-24T01:26:24;18.1;;;7.0;;
6561;SDS011;3314;50.890;4.722;2022-09-24T01:28:20;14.9;;;6.2;;
6561;SDS011;3314;50.890;4.722;2022-09-24T01:30:32;18.8;;;6.9;;
6561;SDS011;3314;50.890;4.722;2022-09-24T01:32:22;15.7;;;6.4;;
6561;SDS011;3314;50.890;4.722;2022-09-24T01:34:15;14.0;;;6.1;;
6561;SDS011;3314;50.890;4.722;2022-09-24T01:36:15;16.6;;;6.9;;
6561;SDS011;3314;50.890;4.722;2022-09-24T01:38:16;15.6;;;6.5;;
6561;SDS011;3314;50.890;4.722;2022-09-24T01:40:23;17.0;;;6.7;;
6561;SDS011;3314;50.890;4.722;2022-09-24T01:42:13;15.0;;;6.9;;
6561;SDS011;3314;50.890;4.722;2022-09-24T01:44:18;17.3;;;7.0;;
6561;SDS011;3314;50.890;4.722;2022-09-24T01:46:20;17.6;;;6.8;;
6561;SDS011;3314;50.890;4.722;2022-09-24T01:48:22;19.0;;;6.7;;
6561;SDS011;3314;50.890;4.722;2022-09-24T01:50:16;19.4;;;7.4;;
6561;SDS011;3314;50.890;4.722;2022-09-24T01:52:19;15.9;;;7.0;;
6561;SDS011;3314;50.890;4.722;2022-09-24T01:54:17;16.5;;;6.9;;
6561;SDS011;3314;50.890;4.722;2022-09-24T01:56:19;18.1;;;7.6;;
6561;SDS011;3314;50.890;4.722;2022-09-24T01:58:10;18.8;;;7.8;;
6561;SDS011;3314;50.890;4.722;2022-09-24T02:00:12;20.1;;;8.0;;
6561;SDS011;3314;50.890;4.722;2022-09-24T02:02:15;16.4;;;7.4;;
6561;SDS011;3314;50.890;4.722;2022-09-24T02:04:18;17.9;;;7.1;;
6561;SDS011;3314;50.890;4.722;2022-09-24T02:06:19;19.7;;;7.1;;
6561;SDS011;3314;50.890;4.722;2022-09-24T02:08:10;18.1;;;7.7;;
6561;SDS011;3314;50.890;4.722;2022-09-24T02:10:12;16.3;;;7.3;;
6561;SDS011;3314;50.890;4.722;2022-09-24T02:12:13;20.7;;;8.3;;
6561;SDS011;3314;50.890;4.722;2022-09-24T02:14:14;17.6;;;7.7;;
6561;SDS011;3314;50.890;4.722;2022-09-24T02:16:17;19.1;;;7.5;;
6561;SDS011;3314;50.890;4.722;2022-09-24T02:18:08;19.9;;;8.3;;
6561;SDS011;3314;50.890;4.722;2022-09-24T02:20:14;20.1;;;8.0;;
6561;SDS011;3314;50.890;4.722;2022-09-24T02:22:14;19.7;;;8.0;;
6561;SDS011;3314;50.890;4.722;2022-09-24T02:24:16;21.0;;;8.4;;
6561;SDS011;3314;50.890;4.722;2022-09-24T02:26:07;16.9;;;7.8;;
6561;SDS011;3314;50.890;4.722;2022-09-24T02:28:06;17.8;;;7.9;;
6561;SDS011;3314;50.890;4.722;2022-09-24T02:30:07;21.4;;;7.8;;
6561;SDS011;3314;50.890;4.722;2022-09-24T02:32:07;18.8;;;8.0;;
6561;SDS011;3314;50.890;4.722;2022-09-24T02:34:26;18.1;;;8.1;;
6561;SDS011;3314;50.890;4.722;2022-09-24T02:36:15;19.6;;;8.4;;
6561;SDS011;3314;50.890;4.722;2022-09-24T02:38:05;18.5;;;8.5;;
6561;SDS011;3314;50.890;4.722;2022-09-24T02:40:13;21.1;;;8.2;;
6561;SDS011;3314;50.890;4.722;2022-09-24T02:42:13;20.6;;;10.2;;
6561;SDS011;3314;50.890;4.722;2022-09-24T02:44:14;26.9;;;8.4;;
6561;SDS011;3314;50.890;4.722;2022-09-24T02:46:14;23.0;;;9.0;;
6561;SDS011;3314;50.890;4.722;2022-09-24T02:48:14;22.0;;;8.5;;
6561;SDS011;3314;50.890;4.722;2022-09-24T02:50:13;19.3;;;8.1;;
6561;SDS011;3314;50.890;4.722;2022-09-24T02:52:13;19.5;;;8.2;;
6561;SDS011;3314;50.890;4.722;2022-09-24T02:54:13;21.0;;;8.5;;
6561;SDS011;3314;50.890;4.722;2022-09-24T02:56:13;22.0;;;8.4;;
6561;SDS011;3314;50.890;4.722;2022-09-24T02:58:12;16.7;;;7.6;;
6561;SDS011;3314;50.890;4.722;2022-09-24T03:00:12;21.2;;;8.8;;
6561;SDS011;3314;50.890;4.722;2022-09-24T03:02:13;19.3;;;7.6;;
6561;SDS011;3314;50.890;4.722;2022-09-24T03:04:02;18.4;;;7.9;;
6561;SDS011;3314;50.890;4.722;2022-09-24T03:06:02;18.2;;;8.1;;
6561;SDS011;3314;50.890;4.722;2022-09-24T03:08:02;20.8;;;8.3;;
6561;SDS011;3314;50.890;4.722;2022-09-24T03:10:01;18.4;;;8.1;;
6561;SDS011;3314;50.890;4.722;2022-09-24T03:12:01;16.7;;;7.8;;
6561;SDS011;3314;50.890;4.722;2022-09-24T03:14:01;20.2;;;8.3;;
6561;SDS011;3314;50.890;4.722;2022-09-24T03:16:01;19.3;;;7.5;;
6561;SDS011;3314;50.890;4.722;2022-09-24T03:18:01;20.8;;;8.1;;
6561;SDS011;3314;50.890;4.722;2022-09-24T03:20:01;16.9;;;7.3;;
6561;SDS011;3314;50.890;4.722;2022-09-24T03:22:01;20.8;;;8.9;;
6561;SDS011;3314;50.890;4.722;2022-09-24T03:24:01;18.3;;;7.8;;
6561;SDS011;3314;50.890;4.722;2022-09-24T03:26:01;22.1;;;8.3;;
6561;SDS011;3314;50.890;4.722;2022-09-24T03:28:01;20.6;;;8.8;;
6561;SDS011;3314;50.890;4.722;2022-09-24T03:31:04;21.1;;;9.1;;
6561;SDS011;3314;50.890;4.722;2022-09-24T03:32:04;20.2;;;8.7;;
6561;SDS011;3314;50.890;4.722;2022-09-24T03:34:04;19.2;;;8.2;;
6561;SDS011;3314;50.890;4.722;2022-09-24T03:36:04;18.3;;;7.7;;
6561;SDS011;3314;50.890;4.722;2022-09-24T03:38:04;20.0;;;8.3;;
6561;SDS011;3314;50.890;4.722;2022-09-24T03:40:05;21.6;;;8.4;;
6561;SDS011;3314;50.890;4.722;2022-09-24T03:42:05;26.7;;;8.9;;
6561;SDS011;3314;50.890;4.722;2022-09-24T03:44:05;18.0;;;7.9;;
6561;SDS011;3314;50.890;4.722;2022-09-24T03:46:06;18.8;;;8.6;;
6561;SDS011;3314;50.890;4.722;2022-09-24T03:48:06;19.3;;;9.0;;
6561;SDS011;3314;50.890;4.722;2022-09-24T03:50:06;20.4;;;7.7;;
6561;SDS011;3314;50.890;4.722;2022-09-24T03:52:05;21.9;;;9.4;;
6561;SDS011;3314;50.890;4.722;2022-09-24T03:54:05;17.5;;;8.3;;
6561;SDS011;3314;50.890;4.722;2022-09-24T03:56:06;20.1;;;9.0;;
6561;SDS011;3314;50.890;4.722;2022-09-24T03:58:06;20.1;;;8.1;;
6561;SDS011;3314;50.890;4.722;2022-09-24T04:00:06;20.1;;;8.6;;
6561;SDS011;3314;50.890;4.722;2022-09-24T04:01:56;17.9;;;7.7;;
6561;SDS011;3314;50.890;4.722;2022-09-24T04:03:55;19.4;;;8.0;;
6561;SDS011;3314;50.890;4.722;2022-09-24T04:05:55;19.7;;;8.4;;
6561;SDS011;3314;50.890;4.722;2022-09-24T04:07:55;16.6;;;8.1;;
6561;SDS011;3314;50.890;4.722;2022-09-24T04:09:55;17.5;;;7.6;;
6561;SDS011;3314;50.890;4.722;2022-09-24T04:11:55;20.0;;;8.6;;
6561;SDS011;3314;50.890;4.722;2022-09-24T04:13:54;18.0;;;7.9;;
6561;SDS011;3314;50.890;4.722;2022-09-24T04:15:54;17.8;;;8.5;;
6561;SDS011;3314;50.890;4.722;2022-09-24T04:17:54;19.0;;;8.1;;
6561;SDS011;3314;50.890;4.722;2022-09-24T04:19:55;18.9;;;8.1;;
6561;SDS011;3314;50.890;4.722;2022-09-24T04:21:55;19.0;;;8.9;;
6561;SDS011;3314;50.890;4.722;2022-09-24T04:23:54;18.0;;;7.5;;
6561;SDS011;3314;50.890;4.722;2022-09-24T04:25:54;17.9;;;8.1;;
6561;SDS011;3314;50.890;4.722;2022-09-24T04:27:54;19.5;;;8.4;;
6561;SDS011;3314;50.890;4.722;2022-09-24T04:29:54;17.3;;;7.6;;
6561;SDS011;3314;50.890;4.722;2022-09-24T04:31:54;18.2;;;7.5;;
6561;SDS011;3314;50.890;4.722;2022-09-24T04:33:54;21.2;;;8.4;;
6561;SDS011;3314;50.890;4.722;2022-09-24T04:35:54;19.7;;;8.4;;
6561;SDS011;3314;50.890;4.722;2022-09-24T04:37:54;21.6;;;9.3;;
6561;SDS011;3314;50.890;4.722;2022-09-24T04:39:59;17.3;;;8.0;;
6561;SDS011;3314;50.890;4.722;2022-09-24T04:41:59;18.3;;;7.9;;
6561;SDS011;3314;50.890;4.722;2022-09-24T04:43:59;19.0;;;8.0;;
6561;SDS011;3314;50.890;4.722;2022-09-24T04:45:59;19.0;;;8.3;;
6561;SDS011;3314;50.890;4.722;2022-09-24T04:47:58;17.8;;;8.2;;
6561;SDS011;3314;50.890;4.722;2022-09-24T04:50:02;21.4;;;9.2;;
6561;SDS011;3314;50.890;4.722;2022-09-24T04:51:50;21.4;;;8.6;;
6561;SDS011;3314;50.890;4.722;2022-09-24T04:53:50;17.5;;;7.7;;
6561;SDS011;3314;50.890;4.722;2022-09-24T04:55:50;16.6;;;8.0;;
6561;SDS011;3314;50.890;4.722;2022-09-24T04:57:50;19.7;;;8.2;;
6561;SDS011;3314;50.890;4.722;2022-09-24T04:59:50;20.6;;;8.8;;
6561;SDS011;3314;50.890;4.722;2022-09-24T05:01:49;20.8;;;8.4;;
6561;SDS011;3314;50.890;4.722;2022-09-24T05:03:49;19.5;;;7.4;;
6561;SDS011;3314;50.890;4.722;2022-09-24T05:05:49;20.6;;;8.0;;
6561;SDS011;3314;50.890;4.722;2022-09-24T05:07:50;20.1;;;9.5;;
6561;SDS011;3314;50.890;4.722;2022-09-24T05:09:50;21.1;;;8.5;;
6561;SDS011;3314;50.890;4.722;2022-09-24T05:11:50;22.5;;;10.4;;
6561;SDS011;3314;50.890;4.722;2022-09-24T05:13:50;21.6;;;8.4;;
6561;SDS011;3314;50.890;4.722;2022-09-24T05:15:49;21.5;;;9.5;;
6561;SDS011;3314;50.890;4.722;2022-09-24T05:17:49;25.0;;;9.6;;
6561;SDS011;3314;50.890;4.722;2022-09-24T05:19:49;22.1;;;8.9;;
6561;SDS011;3314;50.890;4.722;2022-09-24T05:21:48;24.6;;;10.5;;
6561;SDS011;3314;50.890;4.722;2022-09-24T05:23:48;20.3;;;8.9;;
6561;SDS011;3314;50.890;4.722;2022-09-24T05:27:54;22.2;;;11.0;;
6561;SDS011;3314;50.890;4.722;2022-09-24T05:28:06;22.3;;;9.5;;
6561;SDS011;3314;50.890;4.722;2022-09-24T05:29:54;23.4;;;8.6;;
6561;SDS011;3314;50.890;4.722;2022-09-24T05:31:53;21.6;;;9.2;;
6561;SDS011;3314;50.890;4.722;2022-09-24T05:33:53;23.7;;;9.4;;
6561;SDS011;3314;50.890;4.722;2022-09-24T05:35:55;21.1;;;9.2;;
6561;SDS011;3314;50.890;4.722;2022-09-24T05:37:45;21.8;;;9.0;;
6561;SDS011;3314;50.890;4.722;2022-09-24T05:39:45;22.9;;;9.4;;
6561;SDS011;3314;50.890;4.722;2022-09-24T05:41:44;20.7;;;9.0;;
6561;SDS011;3314;50.890;4.722;2022-09-24T05:43:44;23.4;;;9.1;;
6561;SDS011;3314;50.890;4.722;2022-09-24T05:45:44;23.1;;;9.4;;
6561;SDS011;3314;50.890;4.722;2022-09-24T05:49:44;22.4;;;9.2;;
6561;SDS011;3314;50.890;4.722;2022-09-24T05:51:46;25.9;;;10.3;;
6561;SDS011;3314;50.890;4.722;2022-09-24T05:53:46;22.9;;;9.5;;
6561;SDS011;3314;50.890;4.722;2022-09-24T05:55:45;22.0;;;9.4;;
6561;SDS011;3314;50.890;4.722;2022-09-24T05:57:45;25.5;;;10.3;;
6561;SDS011;3314;50.890;4.722;2022-09-24T05:59:45;22.2;;;9.2;;
6561;SDS011;3314;50.890;4.722;2022-09-24T06:01:44;27.0;;;10.0;;
6561;SDS011;3314;50.890;4.722;2022-09-24T06:03:44;24.5;;;9.5;;
6561;SDS011;3314;50.890;4.722;2022-09-24T06:05:44;21.6;;;9.1;;
6561;SDS011;3314;50.890;4.722;2022-09-24T06:07:44;22.3;;;8.9;;
6561;SDS011;3314;50.890;4.722;2022-09-24T06:09:44;21.3;;;9.6;;
6561;SDS011;3314;50.890;4.722;2022-09-24T06:11:44;25.8;;;10.2;;
6561;SDS011;3314;50.890;4.722;2022-09-24T06:13:43;25.3;;;10.4;;
6561;SDS011;3314;50.890;4.722;2022-09-24T06:15:43;22.4;;;10.0;;
6561;SDS011;3314;50.890;4.722;2022-09-24T06:17:43;24.0;;;9.9;;
6561;SDS011;3314;50.890;4.722;2022-09-24T06:19:42;24.2;;;10.0;;
6561;SDS011;3314;50.890;4.722;2022-09-24T06:21:42;20.8;;;9.2;;
6561;SDS011;3314;50.890;4.722;2022-09-24T06:23:42;27.2;;;9.6;;
6561;SDS011;3314;50.890;4.722;2022-09-24T06:25:41;24.4;;;10.6;;
6561;SDS011;3314;50.890;4.722;2022-09-24T06:27:41;20.5;;;8.4;;
6561;SDS011;3314;50.890;4.722;2022-09-24T06:29:41;21.4;;;9.6;;
6561;SDS011;3314;50.890;4.722;2022-09-24T06:31:40;25.5;;;10.3;;
6561;SDS011;3314;50.890;4.722;2022-09-24T06:33:40;23.5;;;9.7;;
6561;SDS011;3314;50.890;4.722;2022-09-24T06:35:41;24.6;;;9.3;;
6561;SDS011;3314;50.890;4.722;2022-09-24T06:37:41;23.6;;;9.7;;
6561;SDS011;3314;50.890;4.722;2022-09-24T06:39:40;23.7;;;9.6;;
6561;SDS011;3314;50.890;4.722;2022-09-24T06:41:40;25.6;;;10.4;;
6561;SDS011;3314;50.890;4.722;2022-09-24T06:43:40;25.5;;;9.7;;
6561;SDS011;3314;50.890;4.722;2022-09-24T06:45:40;24.2;;;9.1;;
6561;SDS011;3314;50.890;4.722;2022-09-24T06:47:40;27.6;;;9.4;;
6561;SDS011;3314;50.890;4.722;2022-09-24T06:49:40;23.8;;;9.8;;
6561;SDS011;3314;50.890;4.722;2022-09-24T06:51:39;25.7;;;10.0;;
6561;SDS011;3314;50.890;4.722;2022-09-24T06:53:39;24.7;;;9.6;;
6561;SDS011;3314;50.890;4.722;2022-09-24T06:55:39;22.0;;;9.4;;
6561;SDS011;3314;50.890;4.722;2022-09-24T06:57:39;24.9;;;10.0;;
6561;SDS011;3314;50.890;4.722;2022-09-24T06:59:38;21.9;;;9.4;;
6561;SDS011;3314;50.890;4.722;2022-09-24T07:01:38;23.3;;;9.9;;
6561;SDS011;3314;50.890;4.722;2022-09-24T07:03:39;20.1;;;8.7;;
6561;SDS011;3314;50.890;4.722;2022-09-24T07:05:39;23.6;;;8.5;;
6561;SDS011;3314;50.890;4.722;2022-09-24T07:07:40;22.0;;;9.2;;
6561;SDS011;3314;50.890;4.722;2022-09-24T07:09:40;22.3;;;9.1;;
6561;SDS011;3314;50.890;4.722;2022-09-24T07:11:40;23.5;;;9.4;;
6561;SDS011;3314;50.890;4.722;2022-09-24T07:13:41;23.3;;;8.8;;
6561;SDS011;3314;50.890;4.722;2022-09-24T07:15:41;22.0;;;9.6;;
6561;SDS011;3314;50.890;4.722;2022-09-24T07:17:40;24.9;;;9.8;;
6561;SDS011;3314;50.890;4.722;2022-09-24T07:19:41;24.1;;;9.1;;
6561;SDS011;3314;50.890;4.722;2022-09-24T07:21:40;22.8;;;9.1;;
6561;SDS011;3314;50.890;4.722;2022-09-24T07:23:40;26.6;;;9.4;;
6561;SDS011;3314;50.890;4.722;2022-09-24T07:25:40;21.6;;;9.4;;
6561;SDS011;3314;50.890;4.722;2022-09-24T07:27:39;21.7;;;8.2;;
6561;SDS011;3314;50.890;4.722;2022-09-24T07:29:39;21.5;;;8.5;;
6561;SDS011;3314;50.890;4.722;2022-09-24T07:31:39;23.4;;;9.3;;
6561;SDS011;3314;50.890;4.722;2022-09-24T07:33:38;24.8;;;9.8;;
6561;SDS011;3314;50.890;4.722;2022-09-24T07:35:38;21.9;;;8.9;;
6561;SDS011;3314;50.890;4.722;2022-09-24T07:37:38;22.1;;;9.5;;
6561;SDS011;3314;50.890;4.722;2022-09-24T07:39:38;25.3;;;9.2;;
6561;SDS011;3314;50.890;4.722;2022-09-24T07:41:38;23.1;;;9.3;;
6561;SDS011;3314;50.890;4.722;2022-09-24T07:43:38;23.8;;;9.3;;
6561;SDS011;3314;50.890;4.722;2022-09-24T07:45:38;25.3;;;8.8;;
6561;SDS011;3314;50.890;4.722;2022-09-24T07:47:38;24.2;;;9.0;;
6561;SDS011;3314;50.890;4.722;2022-09-24T07:49:38;26.3;;;10.0;;
6561;SDS011;3314;50.890;4.722;2022-09-24T07:51:38;25.6;;;10.0;;
6561;SDS011;3314;50.890;4.722;2022-09-24T07:53:38;22.6;;;9.2;;
6561;SDS011;3314;50.890;4.722;2022-09-24T07:55:40;24.1;;;8.6;;
6561;SDS011;3314;50.890;4.722;2022-09-24T07:57:27;24.1;;;9.0;;
6561;SDS011;3314;50.890;4.722;2022-09-24T07:59:27;27.1;;;9.4;;
6561;SDS011;3314;50.890;4.722;2022-09-24T08:01:27;23.2;;;9.6;;
6561;SDS011;3314;50.890;4.722;2022-09-24T08:03:27;25.3;;;9.4;;
6561;SDS011;3314;50.890;4.722;2022-09-24T08:05:27;22.8;;;8.6;;
6561;SDS011;3314;50.890;4.722;2022-09-24T08:07:26;19.7;;;9.2;;
6561;SDS011;3314;50.890;4.722;2022-09-24T08:09:26;23.6;;;9.1;;
6561;SDS011;3314;50.890;4.722;2022-09-24T08:11:26;24.0;;;9.2;;
6561;SDS011;3314;50.890;4.722;2022-09-24T08:13:26;23.9;;;9.3;;
6561;SDS011;3314;50.890;4.722;2022-09-24T08:15:26;23.5;;;8.5;;
6561;SDS011;3314;50.890;4.722;2022-09-24T08:17:26;22.8;;;9.6;;
6561;SDS011;3314;50.890;4.722;2022-09-24T08:19:27;22.4;;;9.4;;
6561;SDS011;3314;50.890;4.722;2022-09-24T08:21:28;20.0;;;8.7;;
6561;SDS011;3314;50.890;4.722;2022-09-24T08:23:28;24.2;;;9.6;;
6561;SDS011;3314;50.890;4.722;2022-09-24T08:25:27;22.1;;;9.0;;
6561;SDS011;3314;50.890;4.722;2022-09-24T08:27:27;24.0;;;9.1;;
6561;SDS011;3314;50.890;4.722;2022-09-24T08:29:27;22.6;;;9.8;;
6561;SDS011;3314;50.890;4.722;2022-09-24T08:31:27;25.7;;;9.0;;
6561;SDS011;3314;50.890;4.722;2022-09-24T08:33:33;20.3;;;8.8;;
6561;SDS011;3314;50.890;4.722;2022-09-24T08:35:23;20.7;;;8.6;;
6561;SDS011;3314;50.890;4.722;2022-09-24T08:37:23;22.0;;;9.4;;
6561;SDS011;3314;50.890;4.722;2022-09-24T08:39:22;24.2;;;9.0;;
6561;SDS011;3314;50.890;4.722;2022-09-24T08:41:26;23.3;;;8.5;;
6561;SDS011;3314;50.890;4.722;2022-09-24T08:43:34;23.6;;;9.4;;
6561;SDS011;3314;50.890;4.722;2022-09-24T08:47:32;23.5;;;8.6;;
6561;SDS011;3314;50.890;4.722;2022-09-24T08:47:48;20.9;;;8.7;;
6561;SDS011;3314;50.890;4.722;2022-09-24T08:49:25;25.7;;;8.8;;
6561;SDS011;3314;50.890;4.722;2022-09-24T08:51:26;19.2;;;7.8;;
6561;SDS011;3314;50.890;4.722;2022-09-24T08:53:32;25.2;;;8.4;;
6561;SDS011;3314;50.890;4.722;2022-09-24T08:55:26;21.8;;;8.3;;
6561;SDS011;3314;50.890;4.722;2022-09-24T08:57:28;25.1;;;8.8;;
6561;SDS011;3314;50.890;4.722;2022-09-24T08:59:30;24.2;;;8.1;;
6561;SDS011;3314;50.890;4.722;2022-09-24T09:01:22;22.1;;;9.3;;
6561;SDS011;3314;50.890;4.722;2022-09-24T09:03:25;21.5;;;8.4;;
6561;SDS011;3314;50.890;4.722;2022-09-24T09:05:32;20.5;;;7.7;;
6561;SDS011;3314;50.890;4.722;2022-09-24T09:07:26;25.6;;;9.0;;
6561;SDS011;3314;50.890;4.722;2022-09-24T09:09:32;19.4;;;7.4;;
6561;SDS011;3314;50.890;4.722;2022-09-24T09:11:22;22.8;;;9.0;;
6561;SDS011;3314;50.890;4.722;2022-09-24T09:13:22;18.9;;;8.8;;
6561;SDS011;3314;50.890;4.722;2022-09-24T09:15:26;26.6;;;8.9;;
6561;SDS011;3314;50.890;4.722;2022-09-24T09:17:30;20.9;;;7.0;;
6561;SDS011;3314;50.890;4.722;2022-09-24T09:19:18;21.7;;;7.9;;
6561;SDS011;3314;50.890;4.722;2022-09-24T09:21:23;20.5;;;8.6;;
6561;SDS011;3314;50.890;4.722;2022-09-24T09:23:27;19.8;;;8.4;;
6561;SDS011;3314;50.890;4.722;2022-09-24T09:25:20;21.2;;;8.3;;
6561;SDS011;3314;50.890;4.722;2022-09-24T09:27:20;18.0;;;8.2;;
6561;SDS011;3314;50.890;4.722;2022-09-24T09:29:20;24.3;;;8.0;;
6561;SDS011;3314;50.890;4.722;2022-09-24T09:31:24;22.9;;;8.9;;
6561;SDS011;3314;50.890;4.722;2022-09-24T09:33:31;22.0;;;8.5;;
6561;SDS011;3314;50.890;4.722;2022-09-24T09:35:21;20.8;;;9.0;;
6561;SDS011;3314;50.890;4.722;2022-09-24T09:37:25;26.2;;;9.7;;
6561;SDS011;3314;50.890;4.722;2022-09-24T09:39:19;22.8;;;8.3;;
6561;SDS011;3314;50.890;4.722;2022-09-24T09:41:22;21.9;;;8.8;;
6561;SDS011;3314;50.890;4.722;2022-09-24T09:43:24;24.6;;;9.8;;
6561;SDS011;3314;50.890;4.722;2022-09-24T09:45:27;21.0;;;9.4;;
6561;SDS011;3314;50.890;4.722;2022-09-24T09:47:18;21.1;;;8.7;;
6561;SDS011;3314;50.890;4.722;2022-09-24T09:49:21;23.1;;;9.2;;
6561;SDS011;3314;50.890;4.722;2022-09-24T09:51:23;24.4;;;9.5;;
6561;SDS011;3314;50.890;4.722;2022-09-24T09:53:24;24.6;;;10.2;;
6561;SDS011;3314;50.890;4.722;2022-09-24T09:55:22;21.1;;;8.1;;
6561;SDS011;3314;50.890;4.722;2022-09-24T09:57:22;24.2;;;9.8;;
6561;SDS011;3314;50.890;4.722;2022-09-24T09:59:22;24.9;;;8.9;;
6561;SDS011;3314;50.890;4.722;2022-09-24T10:01:14;23.0;;;8.4;;
6561;SDS011;3314;50.890;4.722;2022-09-24T10:03:23;24.2;;;8.0;;
6561;SDS011;3314;50.890;4.722;2022-09-24T10:05:17;23.5;;;8.4;;
6561;SDS011;3314;50.890;4.722;2022-09-24T10:07:18;20.5;;;7.7;;
6561;SDS011;3314;50.890;4.722;2022-09-24T10:09:19;20.3;;;6.9;;
6561;SDS011;3314;50.890;4.722;2022-09-24T10:11:20;18.9;;;7.8;;
6561;SDS011;3314;50.890;4.722;2022-09-24T10:13:20;24.2;;;8.3;;
6561;SDS011;3314;50.890;4.722;2022-09-24T10:15:21;22.6;;;7.7;;
6561;SDS011;3314;50.890;4.722;2022-09-24T10:17:12;18.7;;;7.6;;
6561;SDS011;3314;50.890;4.722;2022-09-24T10:19:14;19.4;;;7.6;;
6561;SDS011;3314;50.890;4.722;2022-09-24T10:21:23;20.7;;;7.1;;
6561;SDS011;3314;50.890;4.722;2022-09-24T10:23:13;17.0;;;8.2;;
6561;SDS011;3314;50.890;4.722;2022-09-24T10:25:16;20.6;;;7.9;;
6561;SDS011;3314;50.890;4.722;2022-09-24T10:27:19;18.7;;;7.1;;
6561;SDS011;3314;50.890;4.722;2022-09-24T10:31:17;20.5;;;7.6;;
6561;SDS011;3314;50.890;4.722;2022-09-24T10:31:30;22.1;;;8.6;;
6561;SDS011;3314;50.890;4.722;2022-09-24T10:33:18;19.0;;;7.1;;
6561;SDS011;3314;50.890;4.722;2022-09-24T10:35:19;19.6;;;7.6;;
6561;SDS011;3314;50.890;4.722;2022-09-24T10:37:12;19.3;;;7.3;;
6561;SDS011;3314;50.890;4.722;2022-09-24T10:39:13;24.4;;;8.7;;
6561;SDS011;3314;50.890;4.722;2022-09-24T10:41:14;20.3;;;8.0;;
6561;SDS011;3314;50.890;4.722;2022-09-24T10:43:15;19.0;;;7.4;;
6561;SDS011;3314;50.890;4.722;2022-09-24T10:45:15;20.1;;;8.1;;
6561;SDS011;3314;50.890;4.722;2022-09-24T10:47:18;18.2;;;7.6;;
6561;SDS011;3314;50.890;4.722;2022-09-24T10:49:11;19.4;;;7.0;;
6561;SDS011;3314;50.890;4.722;2022-09-24T10:51:19;20.6;;;7.8;;
6561;SDS011;3314;50.890;4.722;2022-09-24T10:53:12;17.3;;;6.1;;
6561;SDS011;3314;50.890;4.722;2022-09-24T10:55:16;20.3;;;7.8;;
6561;SDS011;3314;50.890;4.722;2022-09-24T10:57:11;20.4;;;7.3;;
6561;SDS011;3314;50.890;4.722;2022-09-24T10:59:18;21.4;;;8.0;;
6561;SDS011;3314;50.890;4.722;2022-09-24T11:01:12;22.0;;;7.4;;
6561;SDS011;3314;50.890;4.722;2022-09-24T11:03:34;18.3;;;6.7;;
6561;SDS011;3314;50.890;4.722;2022-09-24T11:05:13;16.3;;;6.6;;
6561;SDS011;3314;50.890;4.722;2022-09-24T11:07:21;18.0;;;6.5;;
6561;SDS011;3314;50.890;4.722;2022-09-24T11:09:17;21.4;;;8.2;;
6561;SDS011;3314;50.890;4.722;2022-09-24T11:11:13;20.2;;;7.4;;
6561;SDS011;3314;50.890;4.722;2022-09-24T11:13:09;17.7;;;7.0;;
6561;SDS011;3314;50.890;4.722;2022-09-24T11:15:16;20.3;;;7.6;;
6561;SDS011;3314;50.890;4.722;2022-09-24T11:17:15;23.4;;;7.4;;
6561;SDS011;3314;50.890;4.722;2022-09-24T11:19:10;19.7;;;6.3;;
6561;SDS011;3314;50.890;4.722;2022-09-24T11:21:16;19.7;;;7.8;;
6561;SDS011;3314;50.890;4.722;2022-09-24T11:23:21;20.5;;;7.4;;
6561;SDS011;3314;50.890;4.722;2022-09-24T11:25:15;20.3;;;8.2;;
6561;SDS011;3314;50.890;4.722;2022-09-24T11:27:10;20.5;;;8.0;;
6561;SDS011;3314;50.890;4.722;2022-09-24T11:29:10;18.9;;;6.5;;
6561;SDS011;3314;50.890;4.722;2022-09-24T11:31:05;23.1;;;8.5;;
6561;SDS011;3314;50.890;4.722;2022-09-24T11:33:11;17.5;;;6.7;;
6561;SDS011;3314;50.890;4.722;2022-09-24T11:35:14;26.1;;;8.7;;
6561;SDS011;3314;50.890;4.722;2022-09-24T11:37:10;19.1;;;7.3;;
6561;SDS011;3314;50.890;4.722;2022-09-24T11:39:16;19.3;;;8.2;;
6561;SDS011;3314;50.890;4.722;2022-09-24T11:41:14;22.5;;;7.9;;
6561;SDS011;3314;50.890;4.722;2022-09-24T11:43:07;19.6;;;7.8;;
6561;SDS011;3314;50.890;4.722;2022-09-24T11:45:04;19.6;;;6.3;;
6561;SDS011;3314;50.890;4.722;2022-09-24T11:47:11;19.2;;;6.8;;
6561;SDS011;3314;50.890;4.722;2022-09-24T11:49:08;17.3;;;6.4;;
6561;SDS011;3314;50.890;4.722;2022-09-24T11:51:16;15.8;;;6.4;;
6561;SDS011;3314;50.890;4.722;2022-09-24T11:53:09;17.5;;;6.6;;
6561;SDS011;3314;50.890;4.722;2022-09-24T11:55:01;15.9;;;6.3;;
6561;SDS011;3314;50.890;4.722;2022-09-24T11:57:04;17.9;;;6.4;;
6561;SDS011;3314;50.890;4.722;2022-09-24T11:59:11;18.9;;;6.5;;
6561;SDS011;3314;50.890;4.722;2022-09-24T12:01:01;18.0;;;6.0;;
6561;SDS011;3314;50.890;4.722;2022-09-24T12:03:05;18.1;;;6.9;;
6561;SDS011;3314;50.890;4.722;2022-09-24T12:05:07;19.6;;;7.5;;
6561;SDS011;3314;50.890;4.722;2022-09-24T12:07:00;16.8;;;6.6;;
6561;SDS011;3314;50.890;4.722;2022-09-24T12:09:04;15.5;;;6.5;;
6561;SDS011;3314;50.890;4.722;2022-09-24T12:11:07;20.2;;;6.8;;
6561;SDS011;3314;50.890;4.722;2022-09-24T12:13:13;19.1;;;6.2;;
6561;SDS011;3314;50.890;4.722;2022-09-24T12:15:04;18.5;;;7.6;;
6561;SDS011;3314;50.890;4.722;2022-09-24T12:17:06;18.7;;;7.1;;
6561;SDS011;3314;50.890;4.722;2022-09-24T12:19:08;16.8;;;6.1;;
6561;SDS011;3314;50.890;4.722;2022-09-24T12:20:58;18.3;;;6.1;;
6561;SDS011;3314;50.890;4.722;2022-09-24T12:23:00;16.0;;;5.4;;
6561;SDS011;3314;50.890;4.722;2022-09-24T12:25:02;16.9;;;6.3;;
6561;SDS011;3314;50.890;4.722;2022-09-24T12:27:05;17.3;;;5.7;;
6561;SDS011;3314;50.890;4.722;2022-09-24T12:31:12;17.4;;;6.0;;
6561;SDS011;3314;50.890;4.722;2022-09-24T12:33:33;15.3;;;5.8;;
6561;SDS011;3314;50.890;4.722;2022-09-24T12:33:47;13.5;;;5.9;;
6561;SDS011;3314;50.890;4.722;2022-09-24T12:35:05;15.8;;;5.3;;
6561;SDS011;3314;50.890;4.722;2022-09-24T12:36:57;17.7;;;5.2;;